createdAt,value
2019-05-12T00:02:21.753Z,51.90
2019-05-12T00:04:49.228Z,52.10
2019-05-12T00:07:18.070Z,52.00
2019-05-12T00:09:47.448Z,52.00
2019-05-12T00:12:14.753Z,52.10
2019-05-12T00:14:42.194Z,52.20
2019-05-12T00:17:09.630Z,52.20
2019-05-12T00:19:37.754Z,52.40
2019-05-12T00:22:07.545Z,52.50
2019-05-12T00:24:34.460Z,52.70
2019-05-12T00:27:04.455Z,52.60
2019-05-12T00:29:31.908Z,52.60
2019-05-12T00:31:59.272Z,52.60
2019-05-12T00:34:28.710Z,52.70
2019-05-12T00:36:57.735Z,52.80
2019-05-12T00:39:25.176Z,52.90
2019-05-12T00:41:52.593Z,52.80
2019-05-12T00:44:19.950Z,52.90
2019-05-12T00:46:48.788Z,53.00
2019-05-12T00:49:18.446Z,52.90
2019-05-12T00:51:45.504Z,52.80
2019-05-12T00:54:12.990Z,52.90
2019-05-12T00:56:40.426Z,52.80
2019-05-12T00:59:08.273Z,52.80
2019-05-12T01:01:37.904Z,52.90
2019-05-12T01:04:05.255Z,53.00
2019-05-12T01:06:32.734Z,53.00
2019-05-12T01:09:00.183Z,53.00
2019-05-12T01:11:28.569Z,53.00
2019-05-12T01:13:58.211Z,53.10
2019-05-12T01:16:25.474Z,53.20
2019-05-12T01:18:52.904Z,53.20
2019-05-12T01:21:20.312Z,53.20
2019-05-12T01:23:56.541Z,54.30
2019-05-12T01:26:17.958Z,53.30
2019-05-12T01:28:45.519Z,53.30
2019-05-12T01:31:14.651Z,53.30
2019-05-12T01:33:41.975Z,53.30
2019-05-12T01:36:09.485Z,53.40
2019-05-12T01:38:37.949Z,53.40
2019-05-12T01:41:05.612Z,53.40
2019-05-12T01:43:33.051Z,53.50
2019-05-12T01:46:00.428Z,53.60
2019-05-12T01:48:28.775Z,53.60
2019-05-12T01:50:57.999Z,53.60
2019-05-12T01:53:25.699Z,53.70
2019-05-12T01:55:53.023Z,53.70
2019-05-12T01:58:20.483Z,53.60
2019-05-12T02:00:48.240Z,53.70
2019-05-12T02:03:17.852Z,54.20
2019-05-12T02:05:48.646Z,54.00
2019-05-12T02:08:21.833Z,53.80
2019-05-12T02:10:52.871Z,53.80
2019-05-12T02:13:20.300Z,53.80
2019-05-12T02:15:48.592Z,53.90
2019-05-12T02:18:17.829Z,54.00
2019-05-12T02:20:45.357Z,53.90
2019-05-12T02:23:12.702Z,53.90
2019-05-12T02:25:40.047Z,54.00
2019-05-12T02:28:09.342Z,54.10
2019-05-12T02:33:09.702Z,54.00
2019-05-12T02:35:37.159Z,54.10
2019-05-12T02:38:05.196Z,54.30
2019-05-12T02:40:34.753Z,54.50
2019-05-12T02:43:05.142Z,54.40
2019-05-12T02:45:31.454Z,54.40
2019-05-12T02:47:59.089Z,54.30
2019-05-12T02:50:35.305Z,54.30
2019-05-12T02:53:05.180Z,54.50
2019-05-12T02:55:34.870Z,54.40
2019-05-12T02:58:04.936Z,54.40
2019-05-12T03:00:35.193Z,54.50
2019-05-12T03:03:05.359Z,54.40
2019-05-12T03:05:35.186Z,55.10
2019-05-12T03:08:04.835Z,54.50
2019-05-12T03:10:35.545Z,54.40
2019-05-12T03:13:04.481Z,54.50
2019-05-12T03:15:35.847Z,54.50
2019-05-12T03:18:01.434Z,54.50
2019-05-12T03:20:28.907Z,54.40
2019-05-12T03:22:56.378Z,54.40
2019-05-12T03:25:26.094Z,54.20
2019-05-12T03:27:54.533Z,54.30
2019-05-12T03:30:28.434Z,54.20
2019-05-12T03:32:57.396Z,54.20
2019-05-12T03:35:20.756Z,54.20
2019-05-12T03:37:48.254Z,54.30
2019-05-12T03:40:15.716Z,54.50
2019-05-12T03:42:44.496Z,54.40
2019-05-12T03:45:14.940Z,54.60
2019-05-12T03:47:45.222Z,54.60
2019-05-12T03:50:11.024Z,54.60
2019-05-12T03:52:38.374Z,54.70
2019-05-12T03:55:05.946Z,54.60
2019-05-12T03:57:34.481Z,54.60
2019-05-12T04:00:05.066Z,54.50
2019-05-12T04:02:33.961Z,54.50
2019-05-12T04:05:00.900Z,54.60
2019-05-12T04:07:28.408Z,54.70
2019-05-12T04:09:55.834Z,54.70
2019-05-12T04:12:25.410Z,54.70
2019-05-12T04:14:55.047Z,54.70
2019-05-12T04:17:24.361Z,54.70
2019-05-12T04:19:51.112Z,54.90
2019-05-12T04:22:18.668Z,54.80
2019-05-12T04:24:46.189Z,54.70
2019-05-12T04:27:15.017Z,54.70
2019-05-12T04:29:44.181Z,55.40
2019-05-12T04:32:14.281Z,54.80
2019-05-12T04:34:40.987Z,54.80
2019-05-12T04:37:08.592Z,54.70
2019-05-12T04:39:36.021Z,54.70
2019-05-12T04:42:05.243Z,54.70
2019-05-12T04:44:34.763Z,54.70
2019-05-12T04:47:02.028Z,54.70
2019-05-12T04:49:29.455Z,54.70
2019-05-12T04:51:56.956Z,54.60
2019-05-12T04:54:24.858Z,55.30
2019-05-12T04:56:55.107Z,54.60
2019-05-12T04:59:21.612Z,54.60
2019-05-12T05:01:49.083Z,54.60
2019-05-12T05:04:17.912Z,54.70
2019-05-12T05:06:45.364Z,54.40
2019-05-12T05:09:14.462Z,54.40
2019-05-12T05:11:44.756Z,54.40
2019-05-12T05:14:14.277Z,54.40
2019-05-12T05:16:44.895Z,54.50
2019-05-12T05:19:13.308Z,54.50
2019-05-12T05:21:40.592Z,54.70
2019-05-12T05:24:08.008Z,54.70
2019-05-12T05:26:37.436Z,54.50
2019-05-12T05:29:04.720Z,54.40
2019-05-12T05:31:33.678Z,54.50
2019-05-12T05:34:01.426Z,54.50
2019-05-12T05:36:28.863Z,54.40
2019-05-12T05:39:01.458Z,54.00
2019-05-12T05:41:25.569Z,54.20
2019-05-12T05:43:58.158Z,54.20
2019-05-12T05:46:24.089Z,54.20
2019-05-12T05:48:54.138Z,54.20
2019-05-12T05:51:20.934Z,54.10
2019-05-12T05:53:49.905Z,54.00
2019-05-12T05:56:18.384Z,53.90
2019-05-12T05:58:51.700Z,54.00
2019-05-12T06:01:16.732Z,54.00
2019-05-12T06:03:44.323Z,54.10
2019-05-12T06:06:14.631Z,54.00
2019-05-12T06:08:44.271Z,54.10
2019-05-12T06:11:14.820Z,54.00
2019-05-12T06:13:41.228Z,54.10
2019-05-12T06:16:13.724Z,54.10
2019-05-12T06:18:37.862Z,54.10
2019-05-12T06:21:05.354Z,54.00
2019-05-12T06:23:35.018Z,53.90
2019-05-12T06:26:04.405Z,54.00
2019-05-12T06:28:39.341Z,54.10
2019-05-12T06:31:00.759Z,54.00
2019-05-12T06:33:31.854Z,53.90
2019-05-12T06:35:57.492Z,53.90
2019-05-12T06:38:24.826Z,54.00
2019-05-12T06:40:54.364Z,54.10
2019-05-12T06:43:24.250Z,54.20
2019-05-12T06:45:51.739Z,54.10
2019-05-12T06:48:24.372Z,54.10
2019-05-12T06:50:48.482Z,54.00
2019-05-12T06:53:20.107Z,54.00
2019-05-12T06:55:45.665Z,53.90
2019-05-12T06:58:13.966Z,53.90
2019-05-12T07:00:43.604Z,53.90
2019-05-12T07:03:11.122Z,54.00
2019-05-12T07:05:58.341Z,54.00
2019-05-12T07:08:27.452Z,54.00
2019-05-12T07:11:01.625Z,54.20
2019-05-12T07:13:29.244Z,54.00
2019-05-12T07:15:55.641Z,54.00
2019-05-12T07:18:31.798Z,53.90
2019-05-12T07:20:53.767Z,53.80
2019-05-12T07:23:26.025Z,53.80
2019-05-12T07:25:50.864Z,53.90
2019-05-12T07:28:18.316Z,54.10
2019-05-12T07:30:46.239Z,53.90
2019-05-12T07:33:14.578Z,53.80
2019-05-12T07:35:44.417Z,53.80
2019-05-12T07:38:21.005Z,53.90
2019-05-12T07:40:45.919Z,53.80
2019-05-12T07:43:20.341Z,54.70
2019-05-12T07:49:38.574Z,53.80
2019-05-12T08:03:24.193Z,53.40
2019-05-12T08:34:36.105Z,54.20
2019-05-12T08:38:10.968Z,53.40
2019-05-12T08:43:40.531Z,53.80
2019-05-12T09:10:45.134Z,53.80
2019-05-12T09:13:14.396Z,53.60
2019-05-12T09:15:43.823Z,53.60
2019-05-12T09:18:11.407Z,53.50
2019-05-12T09:20:47.901Z,53.60
2019-05-12T09:23:08.099Z,53.60
2019-05-12T09:25:39.377Z,53.70
2019-05-12T09:28:04.871Z,54.40
2019-05-12T09:30:33.661Z,53.80
2019-05-12T09:33:03.725Z,54.00
2019-05-12T09:35:34.913Z,54.00
2019-05-12T09:38:02.898Z,54.20
2019-05-12T09:40:29.232Z,54.30
2019-05-12T09:43:00.195Z,54.20
2019-05-12T09:45:26.286Z,55.20
2019-05-12T09:47:53.978Z,54.40
2019-05-12T09:50:23.371Z,54.50
2019-05-12T09:52:54.976Z,54.50
2019-05-12T09:55:22.116Z,54.40
2019-05-12T09:57:49.622Z,54.40
2019-05-12T10:00:17.954Z,54.30
2019-05-12T10:02:45.383Z,56.10
2019-05-12T10:05:14.431Z,54.40
2019-05-12T10:07:44.369Z,54.30
2019-05-12T10:10:14.005Z,54.30
2019-05-12T10:12:46.207Z,54.30
2019-05-12T10:15:13.499Z,54.20
2019-05-12T10:17:43.273Z,54.30
2019-05-12T10:20:11.077Z,54.30
2019-05-12T10:22:40.237Z,54.40
2019-05-12T10:25:08.425Z,54.50
2019-05-12T10:27:36.140Z,54.50
2019-05-12T10:30:11.884Z,54.60
2019-05-12T10:32:34.628Z,54.70
2019-05-12T10:35:02.171Z,54.60
2019-05-12T10:37:29.645Z,54.60
2019-05-12T10:39:57.283Z,54.70
2019-05-12T10:42:24.742Z,54.70
2019-05-12T10:44:54.474Z,54.70
2019-05-12T10:47:23.805Z,54.80
2019-05-12T10:49:50.996Z,54.70
2019-05-12T10:52:18.586Z,54.70
2019-05-12T10:54:46.087Z,54.70
2019-05-12T10:57:14.113Z,54.70
2019-05-12T10:59:46.793Z,54.60
2019-05-12T11:02:13.818Z,54.40
2019-05-12T11:04:41.418Z,54.40
2019-05-12T11:07:10.028Z,54.40
2019-05-12T11:09:37.538Z,54.40
2019-05-12T11:12:05.010Z,54.40
2019-05-12T11:14:34.196Z,54.40
2019-05-12T11:17:07.702Z,54.40
2019-05-12T11:19:33.771Z,54.40
2019-05-12T11:22:03.483Z,54.40
2019-05-12T11:24:30.615Z,54.30
2019-05-12T11:26:58.081Z,54.30
2019-05-12T11:29:25.560Z,54.40
2019-05-12T11:31:53.881Z,54.30
2019-05-12T11:34:21.595Z,54.30
2019-05-12T11:36:48.985Z,54.50
2019-05-12T11:39:16.435Z,54.70
2019-05-12T11:41:44.402Z,54.70
2019-05-12T11:44:13.232Z,54.80
2019-05-12T11:46:40.900Z,54.80
2019-05-12T11:49:09.662Z,54.80
2019-05-12T11:51:37.429Z,54.90
2019-05-12T11:54:09.092Z,54.90
2019-05-12T11:56:34.166Z,54.80
2019-05-12T11:59:01.759Z,54.70
2019-05-12T12:01:29.620Z,54.70
2019-05-12T12:03:57.121Z,54.70
2019-05-12T12:06:24.628Z,54.60
2019-05-12T12:08:53.701Z,54.50
2019-05-12T12:11:27.186Z,54.40
2019-05-12T12:13:50.866Z,54.30
2019-05-12T12:16:18.384Z,54.30
2019-05-12T12:18:49.242Z,54.20
2019-05-12T12:21:15.096Z,54.20
2019-05-12T12:23:47.321Z,54.20
2019-05-12T12:26:26.095Z,54.30
2019-05-12T12:28:51.392Z,54.20
2019-05-12T12:31:19.074Z,54.10
2019-05-12T12:33:47.096Z,54.30
2019-05-12T12:36:14.795Z,54.30
2019-05-12T12:38:43.992Z,54.40
2019-05-12T12:41:13.197Z,54.60
2019-05-12T12:43:40.823Z,54.70
2019-05-12T12:46:21.459Z,54.70
2019-05-12T12:48:46.294Z,54.80
2019-05-12T12:51:17.353Z,54.80
2019-05-12T12:53:43.762Z,54.80
2019-05-12T12:56:16.267Z,54.70
2019-05-12T12:58:40.756Z,54.80
2019-05-12T13:01:08.266Z,53.90
2019-05-12T13:03:35.703Z,54.80
2019-05-12T13:06:04.785Z,55.50
2019-05-12T13:08:34.235Z,54.70
2019-05-12T13:11:04.134Z,54.70
2019-05-12T13:13:31.073Z,54.70
2019-05-12T13:15:58.518Z,54.70
2019-05-12T13:18:33.186Z,54.80
2019-05-12T13:20:57.923Z,54.80
2019-05-12T13:23:36.769Z,54.90
2019-05-12T13:25:54.787Z,54.90
2019-05-12T13:28:25.159Z,55.10
2019-05-12T13:30:54.006Z,55.30
2019-05-12T13:33:23.254Z,55.30
2019-05-12T13:35:55.708Z,55.20
2019-05-12T13:38:20.292Z,55.20
2019-05-12T13:40:47.727Z,55.30
2019-05-12T13:43:19.398Z,55.20
2019-05-12T13:45:46.301Z,55.20
2019-05-12T13:48:15.777Z,55.20
2019-05-12T13:50:43.415Z,55.30
2019-05-12T13:53:10.887Z,54.60
2019-05-12T13:55:39.339Z,55.50
2019-05-12T13:58:07.710Z,55.60
2019-05-12T14:00:35.241Z,55.70
2019-05-12T14:03:09.489Z,55.80
2019-05-12T14:05:32.269Z,55.90
2019-05-12T14:07:59.789Z,55.80
2019-05-12T14:10:27.312Z,55.90
2019-05-12T14:12:54.765Z,55.90
2019-05-12T14:15:24.675Z,55.60
2019-05-12T14:17:53.948Z,55.60
2019-05-12T14:20:23.850Z,55.30
2019-05-12T14:22:53.251Z,55.20
2019-05-12T14:25:21.079Z,54.80
2019-05-12T14:27:49.989Z,54.60
2019-05-12T14:30:17.420Z,54.80
2019-05-12T14:32:49.342Z,54.40
2019-05-12T14:35:14.293Z,54.30
2019-05-12T14:37:45.805Z,54.30
2019-05-12T14:40:13.344Z,54.10
2019-05-12T14:42:43.990Z,54.20
2019-05-12T14:45:13.895Z,53.70
2019-05-12T14:47:43.446Z,54.20
2019-05-12T14:50:11.171Z,54.10
2019-05-12T14:52:38.654Z,54.20
2019-05-12T14:55:06.317Z,54.20
2019-05-12T14:57:37.282Z,54.30
2019-05-12T15:00:04.403Z,54.30
2019-05-12T15:02:33.240Z,54.30
2019-05-12T15:05:06.619Z,54.30
2019-05-12T15:07:30.148Z,54.30
2019-05-12T15:10:02.586Z,54.40
2019-05-12T15:12:27.163Z,54.60
2019-05-12T15:14:54.648Z,54.40
2019-05-12T15:17:24.301Z,54.40
2019-05-12T15:19:51.719Z,54.50
2019-05-12T15:22:19.492Z,54.30
2019-05-12T15:24:49.303Z,54.50
2019-05-12T15:27:16.628Z,54.60
2019-05-12T15:29:44.358Z,54.60
2019-05-12T15:32:12.073Z,54.60
2019-05-12T15:34:39.778Z,54.50
2019-05-12T15:37:07.762Z,54.50
2019-05-12T15:39:35.326Z,55.00
2019-05-12T15:42:03.635Z,54.80
2019-05-12T15:44:34.444Z,54.80
2019-05-12T15:47:03.719Z,54.90
2019-05-12T15:49:33.462Z,55.00
2019-05-12T15:52:03.296Z,55.10
2019-05-12T15:54:31.082Z,55.00
2019-05-12T15:56:58.673Z,55.10
2019-05-12T15:59:26.538Z,56.60
2019-05-12T16:02:08.422Z,55.40
2019-05-12T16:04:23.449Z,56.00
2019-05-12T16:06:57.098Z,56.60
2019-05-12T16:09:20.127Z,55.30
2019-05-12T16:11:47.627Z,55.40
2019-05-12T16:14:15.012Z,55.40
2019-05-12T16:16:44.617Z,55.40
2019-05-12T16:19:11.709Z,54.50
2019-05-12T16:21:39.231Z,55.40
2019-05-12T16:24:11.056Z,55.30
2019-05-12T16:26:36.072Z,55.30
2019-05-12T16:29:06.927Z,55.20
2019-05-12T16:31:33.936Z,55.30
2019-05-12T16:34:05.727Z,55.30
2019-05-12T16:36:30.886Z,55.00
2019-05-12T16:39:00.179Z,55.00
2019-05-12T16:41:29.771Z,55.80
2019-05-12T16:43:57.255Z,55.30
2019-05-12T16:46:24.749Z,56.10
2019-05-12T16:48:56.227Z,55.40
2019-05-12T16:51:23.785Z,55.30
2019-05-12T16:53:51.179Z,55.40
2019-05-12T16:56:19.853Z,55.40
2019-05-12T16:58:48.062Z,55.50
2019-05-12T17:01:19.446Z,55.40
2019-05-12T17:03:44.936Z,55.30
2019-05-12T17:06:14.263Z,55.30
2019-05-12T17:08:43.791Z,55.20
2019-05-12T17:11:24.258Z,55.20
2019-05-12T17:13:40.421Z,55.20
2019-05-12T17:16:07.955Z,55.10
2019-05-12T17:18:35.471Z,55.10
2019-05-12T17:21:04.194Z,55.10
2019-05-12T17:23:31.918Z,55.20
2019-05-12T17:26:03.902Z,55.20
2019-05-12T17:28:35.457Z,55.30
2019-05-12T17:31:03.822Z,55.10
2019-05-12T17:33:33.761Z,55.20
2019-05-12T17:36:05.020Z,55.40
2019-05-12T17:38:30.508Z,55.30
2019-05-12T17:41:00.717Z,55.40
2019-05-12T17:43:27.277Z,55.50
2019-05-12T17:45:56.832Z,55.50
2019-05-12T17:48:24.110Z,55.60
2019-05-12T17:50:53.918Z,55.50
2019-05-12T17:53:23.615Z,55.60
2019-05-12T17:55:53.485Z,55.40
2019-05-12T17:58:20.266Z,55.60
2019-05-12T18:00:51.821Z,55.60
2019-05-12T18:03:21.763Z,55.60
2019-05-12T18:05:47.904Z,55.60
2019-05-12T18:11:26.203Z,55.70
2019-05-12T18:14:01.531Z,55.90
2019-05-12T18:16:24.979Z,55.40
2019-05-12T18:18:55.975Z,55.20
2019-05-12T18:25:36.645Z,55.10
2019-05-12T18:31:15.982Z,55.70
2019-05-12T18:34:48.500Z,55.80
2019-05-12T18:37:16.265Z,56.40
2019-05-12T18:43:36.929Z,56.10
2019-05-12T18:46:10.185Z,55.50
2019-05-12T18:52:23.599Z,55.90
2019-05-12T18:55:10.859Z,54.80
2019-05-12T18:57:39.115Z,55.30
2019-05-12T19:00:14.936Z,55.60
2019-05-12T19:02:44.190Z,55.40
2019-05-12T19:05:15.349Z,55.30
2019-05-12T19:07:41.112Z,55.60
2019-05-12T19:10:08.756Z,55.60
2019-05-12T19:12:36.443Z,55.60
2019-05-12T19:15:10.153Z,55.70
2019-05-12T19:17:35.809Z,55.70
2019-05-12T19:20:05.269Z,55.60
2019-05-12T19:22:33.637Z,55.70
2019-05-12T19:25:40.930Z,55.50
2019-05-12T19:28:10.191Z,55.50
2019-05-12T19:31:14.298Z,56.30
2019-05-12T19:34:14.009Z,55.60
2019-05-12T19:36:24.091Z,54.70
2019-05-12T19:38:54.374Z,56.00
2019-05-12T19:41:36.387Z,55.70
2019-05-12T19:44:37.295Z,55.40
2019-05-12T19:47:04.888Z,55.80
2019-05-12T19:49:45.894Z,55.90
2019-05-12T19:52:04.358Z,56.10
2019-05-12T19:54:36.674Z,56.20
2019-05-12T19:57:03.235Z,56.30
2019-05-12T19:59:34.105Z,56.80
2019-05-12T20:02:04.668Z,56.10
2019-05-12T20:04:36.874Z,56.00
2019-05-12T20:07:05.068Z,56.10
2019-05-12T20:09:34.430Z,56.20
2019-05-12T20:12:09.340Z,56.60
2019-05-12T20:14:31.241Z,56.40
2019-05-12T20:16:59.120Z,56.00
2019-05-12T20:19:27.708Z,56.00
2019-05-12T20:21:56.092Z,56.10
2019-05-12T20:24:23.810Z,56.20
2019-05-12T20:26:53.561Z,56.20
2019-05-12T20:29:26.563Z,56.00
2019-05-12T20:31:50.148Z,56.00
2019-05-12T20:34:17.575Z,56.00
2019-05-12T20:36:44.941Z,55.80
2019-05-12T20:39:16.874Z,56.10
2019-05-12T20:41:41.753Z,56.10
2019-05-12T20:44:09.928Z,56.30
2019-05-12T20:46:38.610Z,56.20
2019-05-12T20:49:10.630Z,56.30
2019-05-12T20:51:35.402Z,56.30
2019-05-12T20:54:07.510Z,56.30
2019-05-12T20:56:34.343Z,56.40
2019-05-12T20:59:03.621Z,56.40
2019-05-12T21:01:30.781Z,56.40
2019-05-12T21:03:58.281Z,56.30
2019-05-12T21:06:25.760Z,56.40
2019-05-12T21:08:56.159Z,56.30
2019-05-12T21:11:24.542Z,56.30
2019-05-12T21:13:54.375Z,56.30
2019-05-12T21:16:30.896Z,56.30
2019-05-12T21:18:56.326Z,56.30
2019-05-12T21:21:25.144Z,56.30
2019-05-12T21:23:53.692Z,56.30
2019-05-12T21:26:18.292Z,56.30
2019-05-12T21:28:48.248Z,56.20
2019-05-12T21:31:14.959Z,56.20
2019-05-12T21:33:42.499Z,56.20
2019-05-12T21:36:15.799Z,56.20
2019-05-12T21:38:39.170Z,56.20
2019-05-12T21:41:07.622Z,56.20
2019-05-12T21:43:35.869Z,56.20
2019-05-12T21:46:07.866Z,56.10
2019-05-12T21:48:34.044Z,56.10
2019-05-12T21:51:04.003Z,56.10
2019-05-12T21:53:30.740Z,56.10
2019-05-12T21:56:03.808Z,56.10
2019-05-12T21:58:27.535Z,56.30
2019-05-12T22:01:04.239Z,56.20
2019-05-12T22:03:28.130Z,56.30
2019-05-12T22:05:55.814Z,56.20
2019-05-12T22:08:25.533Z,56.30
2019-05-12T22:10:54.140Z,56.20
2019-05-12T22:13:21.936Z,56.30
2019-05-12T22:15:51.281Z,56.30
2019-05-12T22:18:19.256Z,56.30
2019-05-12T22:20:46.681Z,56.30
2019-05-12T22:23:15.874Z,56.30
2019-05-12T22:25:43.663Z,56.00
2019-05-12T22:28:13.303Z,56.30
2019-05-12T22:30:40.603Z,56.30
2019-05-12T22:33:10.598Z,56.40
2019-05-12T22:35:37.128Z,56.40
2019-05-12T22:38:15.090Z,56.40
2019-05-12T22:40:33.736Z,56.50
2019-05-12T22:43:01.520Z,56.50
2019-05-12T22:45:36.209Z,56.60
2019-05-12T22:47:59.524Z,56.60
2019-05-12T22:50:27.190Z,56.50
2019-05-12T22:52:56.491Z,56.50
2019-05-12T22:55:27.753Z,56.60
2019-05-12T22:57:53.057Z,56.50
2019-05-12T23:00:21.677Z,56.40
2019-05-12T23:02:49.253Z,56.50
2019-05-12T23:05:20.366Z,57.20
2019-05-12T23:07:45.849Z,56.50
2019-05-12T23:10:14.237Z,56.50
2019-05-12T23:12:41.867Z,56.60
2019-05-12T23:15:09.335Z,56.70
2019-05-12T23:17:38.957Z,56.80
2019-05-12T23:20:07.503Z,56.60
2019-05-12T23:22:36.582Z,56.60
2019-05-12T23:25:04.925Z,56.70
2019-05-12T23:27:33.416Z,56.70
2019-05-12T23:30:10.063Z,56.60
2019-05-12T23:32:30.707Z,56.70
2019-05-12T23:34:58.670Z,56.70
2019-05-12T23:37:30.121Z,56.70
2019-05-12T23:39:55.460Z,56.60
2019-05-12T23:42:23.699Z,56.70
2019-05-12T23:44:51.268Z,56.60
2019-05-12T23:47:18.626Z,56.50
2019-05-12T23:49:45.939Z,56.40
2019-05-12T23:52:14.074Z,56.40
2019-05-12T23:54:41.564Z,56.40
2019-05-12T23:57:08.994Z,56.50
2019-05-12T23:59:36.384Z,55.60
